sensor_id;sensor_type;location;lat;lon;timestamp;pressure;altitude;pressure_sealevel;temperature;humidity
2711;BME280;20721;47.402;8.550;2024-02-15T00:01:27;96626;;;10.83;50.46
2711;BME280;20721;47.402;8.550;2024-02-15T00:03:27;96625;;;10.87;50.26
2711;BME280;20721;47.402;8.550;2024-02-15T00:07:28;96629;;;10.84;49.94
2711;BME280;20721;47.402;8.550;2024-02-15T00:09:27;96629;;;10.63;49.92
2711;BME280;20721;47.402;8.550;2024-02-15T00:11:28;96631;;;10.39;50.45
2711;BME280;20721;47.402;8.550;2024-02-15T00:13:27;96631;;;10.41;50.71
2711;BME280;20721;47.402;8.550;2024-02-15T00:15:27;96633;;;10.45;50.67
2711;BME280;20721;47.402;8.550;2024-02-15T00:17:29;96634;;;10.50;50.83
2711;BME280;20721;47.402;8.550;2024-02-15T00:19:30;96636;;;10.53;50.75
2711;BME280;20721;47.402;8.550;2024-02-15T00:21:27;96635;;;10.40;50.83
2711;BME280;20721;47.402;8.550;2024-02-15T00:23:27;96632;;;10.33;51.36
2711;BME280;20721;47.402;8.550;2024-02-15T00:25:27;96630;;;10.38;51.27
2711;BME280;20721;47.402;8.550;2024-02-15T00:27:27;96630;;;10.39;50.98
2711;BME280;20721;47.402;8.550;2024-02-15T00:29:29;96634;;;10.40;51.12
2711;BME280;20721;47.402;8.550;2024-02-15T00:32:28;96640;;;10.38;51.02
2711;BME280;20721;47.402;8.550;2024-02-15T00:35:28;96635;;;10.36;51.19
2711;BME280;20721;47.402;8.550;2024-02-15T00:37:27;96634;;;10.25;51.27
2711;BME280;20721;47.402;8.550;2024-02-15T00:39:27;96636;;;10.15;51.56
2711;BME280;20721;47.402;8.550;2024-02-15T00:41:28;96639;;;10.13;52.17
2711;BME280;20721;47.402;8.550;2024-02-15T00:43:28;96640;;;10.12;52.39
2711;BME280;20721;47.402;8.550;2024-02-15T00:45:27;96639;;;10.18;52.44
2711;BME280;20721;47.402;8.550;2024-02-15T00:47:28;96636;;;10.22;52.51
2711;BME280;20721;47.402;8.550;2024-02-15T00:49:28;96639;;;10.20;52.60
2711;BME280;20721;47.402;8.550;2024-02-15T00:52:29;96635;;;10.15;52.29
2711;BME280;20721;47.402;8.550;2024-02-15T00:54:27;96633;;;10.16;52.12
2711;BME280;20721;47.402;8.550;2024-02-15T00:56:29;96633;;;10.20;51.86
2711;BME280;20721;47.402;8.550;2024-02-15T00:59:27;96629;;;10.19;51.44
2711;BME280;20721;47.402;8.550;2024-02-15T01:01:27;96631;;;10.09;51.68
2711;BME280;20721;47.402;8.550;2024-02-15T01:04:28;96629;;;10.05;51.36
2711;BME280;20721;47.402;8.550;2024-02-15T01:06:28;96636;;;9.95;52.03
2711;BME280;20721;47.402;8.550;2024-02-15T01:08:28;96637;;;9.98;52.17
2711;BME280;20721;47.402;8.550;2024-02-15T01:10:28;96641;;;10.03;52.47
2711;BME280;20721;47.402;8.550;2024-02-15T01:12:27;96642;;;10.08;52.34
2711;BME280;20721;47.402;8.550;2024-02-15T01:14:30;96643;;;10.04;52.67
2711;BME280;20721;47.402;8.550;2024-02-15T01:16:28;96640;;;9.93;53.54
2711;BME280;20721;47.402;8.550;2024-02-15T01:18:29;96634;;;9.85;54.13
2711;BME280;20721;47.402;8.550;2024-02-15T01:20:28;96638;;;9.84;54.22
2711;BME280;20721;47.402;8.550;2024-02-15T01:22:27;96640;;;9.94;54.02
2711;BME280;20721;47.402;8.550;2024-02-15T01:24:27;96639;;;9.99;53.74
2711;BME280;20721;47.402;8.550;2024-02-15T01:26:28;96634;;;9.92;53.69
2711;BME280;20721;47.402;8.550;2024-02-15T01:28:28;96630;;;9.72;54.21
2711;BME280;20721;47.402;8.550;2024-02-15T01:30:28;96630;;;9.69;54.25
2711;BME280;20721;47.402;8.550;2024-02-15T01:32:28;96627;;;9.68;54.32
2711;BME280;20721;47.402;8.550;2024-02-15T01:34:28;96630;;;9.76;54.08
2711;BME280;20721;47.402;8.550;2024-02-15T01:36:28;96628;;;9.83;53.79
2711;BME280;20721;47.402;8.550;2024-02-15T01:38:27;96633;;;9.89;53.67
2711;BME280;20721;47.402;8.550;2024-02-15T01:41:28;96634;;;9.95;53.66
2711;BME280;20721;47.402;8.550;2024-02-15T01:43:28;96634;;;9.71;53.61
2711;BME280;20721;47.402;8.550;2024-02-15T01:45:28;96636;;;9.66;53.48
2711;BME280;20721;47.402;8.550;2024-02-15T01:47:28;96630;;;9.63;53.21
2711;BME280;20721;47.402;8.550;2024-02-15T01:50:28;96631;;;9.68;53.20
2711;BME280;20721;47.402;8.550;2024-02-15T01:52:28;96629;;;9.71;53.03
2711;BME280;20721;47.402;8.550;2024-02-15T01:54:28;96628;;;9.74;53.01
2711;BME280;20721;47.402;8.550;2024-02-15T01:57:28;96631;;;9.75;53.19
2711;BME280;20721;47.402;8.550;2024-02-15T01:59:28;96629;;;9.73;53.24
2711;BME280;20721;47.402;8.550;2024-02-15T02:01:28;96623;;;9.71;53.42
2711;BME280;20721;47.402;8.550;2024-02-15T02:03:28;96629;;;9.62;53.27
2711;BME280;20721;47.402;8.550;2024-02-15T02:05:29;96626;;;9.38;53.57
2711;BME280;20721;47.402;8.550;2024-02-15T02:07:28;96627;;;9.22;53.93
2711;BME280;20721;47.402;8.550;2024-02-15T02:09:28;96624;;;9.14;53.90
2711;BME280;20721;47.402;8.550;2024-02-15T02:11:29;96619;;;9.16;54.07
2711;BME280;20721;47.402;8.550;2024-02-15T02:13:30;96617;;;9.22;53.89
2711;BME280;20721;47.402;8.550;2024-02-15T02:15:28;96614;;;9.23;53.78
2711;BME280;20721;47.402;8.550;2024-02-15T02:17:28;96614;;;9.25;53.73
2711;BME280;20721;47.402;8.550;2024-02-15T02:20:28;96608;;;9.24;53.64
2711;BME280;20721;47.402;8.550;2024-02-15T02:23:28;96609;;;9.22;53.53
2711;BME280;20721;47.402;8.550;2024-02-15T02:25:28;96608;;;9.17;53.70
2711;BME280;20721;47.402;8.550;2024-02-15T02:28:28;96610;;;9.16;53.62
2711;BME280;20721;47.402;8.550;2024-02-15T02:30:30;96607;;;9.14;53.68
2711;BME280;20721;47.402;8.550;2024-02-15T02:32:28;96602;;;9.10;53.61
2711;BME280;20721;47.402;8.550;2024-02-15T02:34:28;96604;;;9.10;53.71
2711;BME280;20721;47.402;8.550;2024-02-15T02:37:28;96595;;;9.08;53.84
2711;BME280;20721;47.402;8.550;2024-02-15T02:39:31;96596;;;9.03;54.06
2711;BME280;20721;47.402;8.550;2024-02-15T02:41:28;96595;;;9.08;54.40
2711;BME280;20721;47.402;8.550;2024-02-15T02:43:28;96595;;;9.14;54.90
2711;BME280;20721;47.402;8.550;2024-02-15T02:45:28;96594;;;9.23;54.89
2711;BME280;20721;47.402;8.550;2024-02-15T02:47:28;96589;;;9.29;54.84
2711;BME280;20721;47.402;8.550;2024-02-15T02:49:28;96587;;;9.31;55.40
2711;BME280;20721;47.402;8.550;2024-02-15T02:51:28;96584;;;9.34;55.59
2711;BME280;20721;47.402;8.550;2024-02-15T02:53:28;96581;;;9.35;55.77
2711;BME280;20721;47.402;8.550;2024-02-15T02:56:28;96580;;;9.35;55.51
2711;BME280;20721;47.402;8.550;2024-02-15T02:58:28;96581;;;9.37;55.55
2711;BME280;20721;47.402;8.550;2024-02-15T03:01:28;96584;;;9.40;55.53
2711;BME280;20721;47.402;8.550;2024-02-15T03:04:28;96580;;;9.41;55.68
2711;BME280;20721;47.402;8.550;2024-02-15T03:07:28;96580;;;9.40;55.73
2711;BME280;20721;47.402;8.550;2024-02-15T03:09:29;96579;;;9.38;55.52
2711;BME280;20721;47.402;8.550;2024-02-15T03:11:28;96584;;;9.38;55.60
2711;BME280;20721;47.402;8.550;2024-02-15T03:13:28;96582;;;9.39;55.60
2711;BME280;20721;47.402;8.550;2024-02-15T03:16:28;96578;;;9.36;55.48
2711;BME280;20721;47.402;8.550;2024-02-15T03:19:28;96573;;;9.34;55.40
2711;BME280;20721;47.402;8.550;2024-02-15T03:21:28;96574;;;9.31;55.30
2711;BME280;20721;47.402;8.550;2024-02-15T03:23:29;96570;;;9.24;55.43
2711;BME280;20721;47.402;8.550;2024-02-15T03:25:29;96570;;;9.17;55.63
2711;BME280;20721;47.402;8.550;2024-02-15T03:27:28;96572;;;9.11;55.47
2711;BME280;20721;47.402;8.550;2024-02-15T03:29:29;96569;;;9.06;55.64
2711;BME280;20721;47.402;8.550;2024-02-15T03:31:28;96570;;;9.02;55.59
2711;BME280;20721;47.402;8.550;2024-02-15T03:33:33;96572;;;8.95;55.74
2711;BME280;20721;47.402;8.550;2024-02-15T03:35:31;96575;;;8.92;55.88
2711;BME280;20721;47.402;8.550;2024-02-15T03:37:28;96579;;;8.91;56.01
2711;BME280;20721;47.402;8.550;2024-02-15T03:39:28;96578;;;8.90;56.11
2711;BME280;20721;47.402;8.550;2024-02-15T03:42:28;96580;;;8.85;56.22
2711;BME280;20721;47.402;8.550;2024-02-15T03:44:28;96577;;;8.83;56.41
2711;BME280;20721;47.402;8.550;2024-02-15T03:46:28;96577;;;8.80;56.66
2711;BME280;20721;47.402;8.550;2024-02-15T03:48:28;96578;;;8.76;56.62
2711;BME280;20721;47.402;8.550;2024-02-15T03:50:28;96574;;;8.71;56.70
2711;BME280;20721;47.402;8.550;2024-02-15T03:54:29;96570;;;8.70;56.95
2711;BME280;20721;47.402;8.550;2024-02-15T03:56:28;96566;;;8.70;56.70
2711;BME280;20721;47.402;8.550;2024-02-15T03:58:28;96565;;;8.70;56.88
2711;BME280;20721;47.402;8.550;2024-02-15T04:00:28;96567;;;8.72;56.74
2711;BME280;20721;47.402;8.550;2024-02-15T04:03:28;96563;;;8.74;56.90
2711;BME280;20721;47.402;8.550;2024-02-15T04:05:29;96563;;;8.72;57.15
2711;BME280;20721;47.402;8.550;2024-02-15T04:07:28;96567;;;8.72;56.95
2711;BME280;20721;47.402;8.550;2024-02-15T04:09:28;96567;;;8.69;56.61
2711;BME280;20721;47.402;8.550;2024-02-15T04:11:28;96564;;;8.60;56.86
2711;BME280;20721;47.402;8.550;2024-02-15T04:13:28;96571;;;8.58;56.83
2711;BME280;20721;47.402;8.550;2024-02-15T04:15:28;96573;;;8.58;56.77
2711;BME280;20721;47.402;8.550;2024-02-15T04:17:30;96575;;;8.60;56.53
2711;BME280;20721;47.402;8.550;2024-02-15T04:19:28;96579;;;8.55;56.52
2711;BME280;20721;47.402;8.550;2024-02-15T04:21:28;96581;;;8.50;56.67
2711;BME280;20721;47.402;8.550;2024-02-15T04:23:29;96577;;;8.48;56.66
2711;BME280;20721;47.402;8.550;2024-02-15T04:25:28;96575;;;8.44;56.57
2711;BME280;20721;47.402;8.550;2024-02-15T04:27:28;96569;;;8.35;56.46
2711;BME280;20721;47.402;8.550;2024-02-15T04:30:28;96570;;;8.31;56.42
2711;BME280;20721;47.402;8.550;2024-02-15T04:32:29;96566;;;8.35;56.31
2711;BME280;20721;47.402;8.550;2024-02-15T04:34:28;96566;;;8.34;56.31
2711;BME280;20721;47.402;8.550;2024-02-15T04:37:29;96558;;;8.29;56.55
2711;BME280;20721;47.402;8.550;2024-02-15T04:40:28;96562;;;8.24;56.49
2711;BME280;20721;47.402;8.550;2024-02-15T04:42:30;96561;;;8.23;56.35
2711;BME280;20721;47.402;8.550;2024-02-15T04:44:28;96558;;;8.19;56.57
2711;BME280;20721;47.402;8.550;2024-02-15T04:46:29;96554;;;8.16;56.65
2711;BME280;20721;47.402;8.550;2024-02-15T04:48:29;96553;;;8.13;56.89
2711;BME280;20721;47.402;8.550;2024-02-15T04:50:29;96552;;;8.00;57.73
2711;BME280;20721;47.402;8.550;2024-02-15T04:52:28;96553;;;7.81;58.73
2711;BME280;20721;47.402;8.550;2024-02-15T04:54:29;96551;;;7.87;58.80
2711;BME280;20721;47.402;8.550;2024-02-15T04:56:28;96550;;;7.89;58.98
2711;BME280;20721;47.402;8.550;2024-02-15T04:58:28;96550;;;7.96;59.23
2711;BME280;20721;47.402;8.550;2024-02-15T05:01:33;96550;;;7.97;59.19
2711;BME280;20721;47.402;8.550;2024-02-15T05:03:28;96553;;;7.99;59.38
2711;BME280;20721;47.402;8.550;2024-02-15T05:05:29;96549;;;8.00;59.37
2711;BME280;20721;47.402;8.550;2024-02-15T05:07:28;96550;;;7.87;59.77
2711;BME280;20721;47.402;8.550;2024-02-15T05:09:28;96552;;;7.87;59.76
2711;BME280;20721;47.402;8.550;2024-02-15T05:11:28;96556;;;8.01;59.44
2711;BME280;20721;47.402;8.550;2024-02-15T05:13:28;96554;;;8.11;59.05
2711;BME280;20721;47.402;8.550;2024-02-15T05:15:28;96555;;;8.01;59.21
2711;BME280;20721;47.402;8.550;2024-02-15T05:17:29;96561;;;7.89;59.49
2711;BME280;20721;47.402;8.550;2024-02-15T05:19:30;96556;;;7.91;59.45
2711;BME280;20721;47.402;8.550;2024-02-15T05:21:28;96557;;;8.02;58.26
2711;BME280;20721;47.402;8.550;2024-02-15T05:23:28;96554;;;8.07;57.75
2711;BME280;20721;47.402;8.550;2024-02-15T05:25:29;96551;;;8.12;57.60
2711;BME280;20721;47.402;8.550;2024-02-15T05:27:28;96553;;;8.04;57.26
2711;BME280;20721;47.402;8.550;2024-02-15T05:30:29;96550;;;8.00;57.45
2711;BME280;20721;47.402;8.550;2024-02-15T05:32:29;96551;;;8.04;57.48
2711;BME280;20721;47.402;8.550;2024-02-15T05:34:31;96550;;;8.03;57.51
2711;BME280;20721;47.402;8.550;2024-02-15T05:36:30;96554;;;8.07;57.68
2711;BME280;20721;47.402;8.550;2024-02-15T05:38:28;96556;;;8.13;57.27
2711;BME280;20721;47.402;8.550;2024-02-15T05:40:28;96552;;;8.14;57.03
2711;BME280;20721;47.402;8.550;2024-02-15T05:42:28;96548;;;8.11;56.97
2711;BME280;20721;47.402;8.550;2024-02-15T05:45:32;96548;;;8.11;56.88
2711;BME280;20721;47.402;8.550;2024-02-15T05:47:29;96543;;;8.12;56.75
2711;BME280;20721;47.402;8.550;2024-02-15T05:49:28;96540;;;8.09;56.82
2711;BME280;20721;47.402;8.550;2024-02-15T05:51:30;96541;;;8.06;57.05
2711;BME280;20721;47.402;8.550;2024-02-15T05:53:28;96534;;;8.05;57.31
2711;BME280;20721;47.402;8.550;2024-02-15T05:56:29;96527;;;8.05;57.15
2711;BME280;20721;47.402;8.550;2024-02-15T05:58:28;96526;;;8.06;57.27
2711;BME280;20721;47.402;8.550;2024-02-15T06:00:30;96532;;;8.09;57.20
2711;BME280;20721;47.402;8.550;2024-02-15T06:03:28;96537;;;8.11;57.00
2711;BME280;20721;47.402;8.550;2024-02-15T06:05:28;96535;;;8.12;57.22
2711;BME280;20721;47.402;8.550;2024-02-15T06:07:28;96530;;;8.11;57.32
2711;BME280;20721;47.402;8.550;2024-02-15T06:09:30;96523;;;8.11;57.46
2711;BME280;20721;47.402;8.550;2024-02-15T06:11:28;96520;;;8.03;57.59
2711;BME280;20721;47.402;8.550;2024-02-15T06:13:28;96515;;;8.03;57.76
2711;BME280;20721;47.402;8.550;2024-02-15T06:15:28;96516;;;8.09;57.68
2711;BME280;20721;47.402;8.550;2024-02-15T06:17:28;96516;;;8.11;57.20
2711;BME280;20721;47.402;8.550;2024-02-15T06:20:30;96513;;;8.11;56.92
2711;BME280;20721;47.402;8.550;2024-02-15T06:22:30;96514;;;8.03;57.08
2711;BME280;20721;47.402;8.550;2024-02-15T06:24:28;96512;;;8.01;57.23
2711;BME280;20721;47.402;8.550;2024-02-15T06:26:28;96515;;;7.93;57.33
2711;BME280;20721;47.402;8.550;2024-02-15T06:40:28;96531;;;7.87;57.52
2711;BME280;20721;47.402;8.550;2024-02-15T06:44:29;96537;;;7.90;57.36
2711;BME280;20721;47.402;8.550;2024-02-15T06:46:28;96538;;;7.96;57.33
2711;BME280;20721;47.402;8.550;2024-02-15T06:48:29;96542;;;8.04;57.14
2711;BME280;20721;47.402;8.550;2024-02-15T06:50:29;96539;;;8.12;57.00
2711;BME280;20721;47.402;8.550;2024-02-15T06:52:28;96541;;;8.22;56.74
2711;BME280;20721;47.402;8.550;2024-02-15T06:54:28;96543;;;8.31;56.52
2711;BME280;20721;47.402;8.550;2024-02-15T06:56:28;96541;;;8.41;56.15
2711;BME280;20721;47.402;8.550;2024-02-15T06:58:28;96538;;;8.46;55.95
2711;BME280;20721;47.402;8.550;2024-02-15T07:00:30;96543;;;8.51;55.86
2711;BME280;20721;47.402;8.550;2024-02-15T07:02:28;96541;;;8.58;55.91
2711;BME280;20721;47.402;8.550;2024-02-15T07:04:29;96544;;;8.67;55.68
2711;BME280;20721;47.402;8.550;2024-02-15T07:06:29;96542;;;8.72;55.54
2711;BME280;20721;47.402;8.550;2024-02-15T07:08:29;96542;;;8.76;55.47
2711;BME280;20721;47.402;8.550;2024-02-15T07:10:31;96542;;;8.82;55.30
2711;BME280;20721;47.402;8.550;2024-02-15T07:12:28;96544;;;8.88;54.92
2711;BME280;20721;47.402;8.550;2024-02-15T07:14:29;96538;;;8.92;54.94
2711;BME280;20721;47.402;8.550;2024-02-15T07:16:29;96539;;;8.98;54.78
2711;BME280;20721;47.402;8.550;2024-02-15T07:18:31;96542;;;9.05;54.56
2711;BME280;20721;47.402;8.550;2024-02-15T07:20:28;96542;;;9.11;54.22
2711;BME280;20721;47.402;8.550;2024-02-15T07:22:30;96539;;;9.15;54.20
2711;BME280;20721;47.402;8.550;2024-02-15T07:24:29;96537;;;9.23;54.16
2711;BME280;20721;47.402;8.550;2024-02-15T07:26:28;96533;;;9.32;53.82
2711;BME280;20721;47.402;8.550;2024-02-15T07:28:30;96536;;;9.43;53.67
2711;BME280;20721;47.402;8.550;2024-02-15T07:30:29;96529;;;9.52;53.51
2711;BME280;20721;47.402;8.550;2024-02-15T07:32:29;96533;;;9.66;53.34
2711;BME280;20721;47.402;8.550;2024-02-15T07:34:29;96528;;;9.76;53.07
2711;BME280;20721;47.402;8.550;2024-02-15T07:36:29;96526;;;9.90;52.74
2711;BME280;20721;47.402;8.550;2024-02-15T07:38:29;96525;;;10.17;51.67
2711;BME280;20721;47.402;8.550;2024-02-15T07:40:28;96531;;;10.57;50.93
2711;BME280;20721;47.402;8.550;2024-02-15T07:42:29;96527;;;11.32;49.15
2711;BME280;20721;47.402;8.550;2024-02-15T07:44:30;96522;;;12.14;47.35
2711;BME280;20721;47.402;8.550;2024-02-15T07:46:29;96527;;;13.11;45.23
2711;BME280;20721;47.402;8.550;2024-02-15T07:48:29;96518;;;14.00;43.38
2711;BME280;20721;47.402;8.550;2024-02-15T07:50:29;96516;;;14.77;41.84
2711;BME280;20721;47.402;8.550;2024-02-15T07:52:29;96514;;;15.11;41.27
2711;BME280;20721;47.402;8.550;2024-02-15T07:54:30;96514;;;16.07;39.44
2711;BME280;20721;47.402;8.550;2024-02-15T07:56:28;96515;;;17.29;37.32
2711;BME280;20721;47.402;8.550;2024-02-15T07:58:28;96509;;;18.18;35.76
2711;BME280;20721;47.402;8.550;2024-02-15T08:00:30;96505;;;18.37;35.33
2711;BME280;20721;47.402;8.550;2024-02-15T08:02:28;96505;;;18.85;34.61
2711;BME280;20721;47.402;8.550;2024-02-15T08:05:29;96501;;;18.78;34.62
2711;BME280;20721;47.402;8.550;2024-02-15T08:07:31;96497;;;18.44;34.97
2711;BME280;20721;47.402;8.550;2024-02-15T08:09:29;96498;;;18.26;35.22
2711;BME280;20721;47.402;8.550;2024-02-15T08:11:29;96494;;;18.13;35.41
2711;BME280;20721;47.402;8.550;2024-02-15T08:13:29;96489;;;18.04;35.49
2711;BME280;20721;47.402;8.550;2024-02-15T08:15:29;96489;;;17.06;36.72
2711;BME280;20721;47.402;8.550;2024-02-15T08:17:29;96485;;;16.16;38.63
2711;BME280;20721;47.402;8.550;2024-02-15T08:19:29;96481;;;15.30;39.96
2711;BME280;20721;47.402;8.550;2024-02-15T08:21:30;96479;;;14.63;41.60
2711;BME280;20721;47.402;8.550;2024-02-15T08:23:29;96476;;;14.12;42.64
2711;BME280;20721;47.402;8.550;2024-02-15T08:25:29;96471;;;13.76;43.49
2711;BME280;20721;47.402;8.550;2024-02-15T08:27:32;96470;;;13.49;44.21
2711;BME280;20721;47.402;8.550;2024-02-15T08:29:29;96473;;;13.30;44.67
2711;BME280;20721;47.402;8.550;2024-02-15T08:31:30;96470;;;13.18;44.95
2711;BME280;20721;47.402;8.550;2024-02-15T08:33:30;96467;;;13.09;44.80
2711;BME280;20721;47.402;8.550;2024-02-15T08:35:29;96462;;;13.09;44.70
2711;BME280;20721;47.402;8.550;2024-02-15T08:37:29;96458;;;13.22;44.35
2711;BME280;20721;47.402;8.550;2024-02-15T08:39:29;96453;;;13.87;43.14
2711;BME280;20721;47.402;8.550;2024-02-15T08:41:29;96453;;;16.02;39.46
2711;BME280;20721;47.402;8.550;2024-02-15T08:43:29;96440;;;17.64;36.72
2711;BME280;20721;47.402;8.550;2024-02-15T08:45:29;96437;;;18.71;34.57
2711;BME280;20721;47.402;8.550;2024-02-15T08:47:29;96435;;;19.50;32.93
2711;BME280;20721;47.402;8.550;2024-02-15T08:49:30;96431;;;19.83;32.34
2711;BME280;20721;47.402;8.550;2024-02-15T08:51:30;96428;;;20.35;31.64
2711;BME280;20721;47.402;8.550;2024-02-15T08:53:29;96425;;;20.94;30.94
2711;BME280;20721;47.402;8.550;2024-02-15T08:55:29;96421;;;21.33;29.91
2711;BME280;20721;47.402;8.550;2024-02-15T08:57:29;96422;;;21.50;29.99
2711;BME280;20721;47.402;8.550;2024-02-15T08:59:29;96419;;;21.72;29.80
2711;BME280;20721;47.402;8.550;2024-02-15T09:03:29;96417;;;21.78;29.23
2711;BME280;20721;47.402;8.550;2024-02-15T09:05:29;96411;;;21.96;29.02
2711;BME280;20721;47.402;8.550;2024-02-15T09:07:30;96415;;;22.32;27.94
2711;BME280;20721;47.402;8.550;2024-02-15T09:09:30;96411;;;22.76;27.80
2711;BME280;20721;47.402;8.550;2024-02-15T09:11:29;96414;;;23.22;27.14
2711;BME280;20721;47.402;8.550;2024-02-15T09:13:29;96413;;;23.58;26.30
2711;BME280;20721;47.402;8.550;2024-02-15T09:15:30;96409;;;23.95;26.09
2711;BME280;20721;47.402;8.550;2024-02-15T09:17:31;96411;;;23.75;26.03
2711;BME280;20721;47.402;8.550;2024-02-15T09:19:29;96405;;;23.78;26.15
2711;BME280;20721;47.402;8.550;2024-02-15T09:21:29;96403;;;23.97;26.09
2711;BME280;20721;47.402;8.550;2024-02-15T09:23:31;96396;;;24.01;25.81
2711;BME280;20721;47.402;8.550;2024-02-15T09:25:29;96390;;;24.37;25.79
2711;BME280;20721;47.402;8.550;2024-02-15T09:27:29;96390;;;24.35;25.09
2711;BME280;20721;47.402;8.550;2024-02-15T09:29:29;96383;;;24.64;24.70
2711;BME280;20721;47.402;8.550;2024-02-15T09:31:29;96387;;;24.95;24.23
2711;BME280;20721;47.402;8.550;2024-02-15T09:33:29;96383;;;25.22;23.60
2711;BME280;20721;47.402;8.550;2024-02-15T09:35:30;96381;;;25.17;23.69
2711;BME280;20721;47.402;8.550;2024-02-15T09:37:29;96387;;;25.33;23.69
2711;BME280;20721;47.402;8.550;2024-02-15T09:39:29;96385;;;25.52;23.92
2711;BME280;20721;47.402;8.550;2024-02-15T09:41:29;96384;;;25.34;23.38
2711;BME280;20721;47.402;8.550;2024-02-15T09:43:29;96383;;;25.56;23.64
2711;BME280;20721;47.402;8.550;2024-02-15T09:45:30;96384;;;25.83;23.41
2711;BME280;20721;47.402;8.550;2024-02-15T09:47:31;96380;;;26.12;23.06
2711;BME280;20721;47.402;8.550;2024-02-15T09:49:30;96377;;;26.35;22.88
2711;BME280;20721;47.402;8.550;2024-02-15T09:51:31;96376;;;26.68;22.79
2711;BME280;20721;47.402;8.550;2024-02-15T09:53:29;96374;;;27.06;22.52
2711;BME280;20721;47.402;8.550;2024-02-15T09:55:29;96376;;;27.52;22.04
2711;BME280;20721;47.402;8.550;2024-02-15T09:57:29;96380;;;27.85;21.75
2711;BME280;20721;47.402;8.550;2024-02-15T09:59:30;96384;;;28.21;21.38
2711;BME280;20721;47.402;8.550;2024-02-15T10:01:31;96384;;;28.36;21.10
2711;BME280;20721;47.402;8.550;2024-02-15T10:03:31;96387;;;28.28;21.21
2711;BME280;20721;47.402;8.550;2024-02-15T10:05:29;96382;;;28.05;21.48
2711;BME280;20721;47.402;8.550;2024-02-15T10:07:29;96382;;;27.85;22.02
2711;BME280;20721;47.402;8.550;2024-02-15T10:09:30;96380;;;27.18;22.83
2711;BME280;20721;47.402;8.550;2024-02-15T10:11:29;96384;;;26.14;23.90
2711;BME280;20721;47.402;8.550;2024-02-15T10:13:31;96377;;;25.17;24.99
2711;BME280;20721;47.402;8.550;2024-02-15T10:15:35;96377;;;24.24;25.84
2711;BME280;20721;47.402;8.550;2024-02-15T10:17:35;96380;;;23.35;26.80
2711;BME280;20721;47.402;8.550;2024-02-15T10:19:34;96377;;;22.63;27.60
2711;BME280;20721;47.402;8.550;2024-02-15T10:21:31;96372;;;22.11;28.45
2711;BME280;20721;47.402;8.550;2024-02-15T10:23:29;96375;;;21.78;29.16
2711;BME280;20721;47.402;8.550;2024-02-15T10:25:29;96371;;;21.55;29.63
2711;BME280;20721;47.402;8.550;2024-02-15T10:27:30;96370;;;21.44;29.80
2711;BME280;20721;47.402;8.550;2024-02-15T10:29:29;96370;;;21.09;29.86
2711;BME280;20721;47.402;8.550;2024-02-15T10:31:29;96368;;;20.76;30.50
2711;BME280;20721;47.402;8.550;2024-02-15T10:33:29;96368;;;20.55;31.04
2711;BME280;20721;47.402;8.550;2024-02-15T10:35:29;96370;;;20.35;31.39
2711;BME280;20721;47.402;8.550;2024-02-15T10:37:29;96367;;;20.22;31.77
2711;BME280;20721;47.402;8.550;2024-02-15T10:39:29;96362;;;20.16;31.96
2711;BME280;20721;47.402;8.550;2024-02-15T10:41:29;96359;;;20.11;32.17
2711;BME280;20721;47.402;8.550;2024-02-15T10:43:29;96357;;;20.04;32.18
2711;BME280;20721;47.402;8.550;2024-02-15T10:45:30;96355;;;19.87;32.13
2711;BME280;20721;47.402;8.550;2024-02-15T10:47:29;96348;;;19.69;32.51
2711;BME280;20721;47.402;8.550;2024-02-15T10:49:29;96351;;;19.66;32.62
2711;BME280;20721;47.402;8.550;2024-02-15T10:51:29;96348;;;19.61;32.39
2711;BME280;20721;47.402;8.550;2024-02-15T10:53:30;96346;;;19.52;32.92
2711;BME280;20721;47.402;8.550;2024-02-15T10:56:33;96347;;;19.33;33.35
2711;BME280;20721;47.402;8.550;2024-02-15T10:58:31;96344;;;19.13;33.74
2711;BME280;20721;47.402;8.550;2024-02-15T11:00:32;96335;;;19.05;34.17
2711;BME280;20721;47.402;8.550;2024-02-15T11:02:30;96336;;;18.94;34.22
2711;BME280;20721;47.402;8.550;2024-02-15T11:04:32;96331;;;18.87;34.44
2711;BME280;20721;47.402;8.550;2024-02-15T11:06:30;96329;;;18.91;34.30
2711;BME280;20721;47.402;8.550;2024-02-15T11:08:29;96324;;;18.93;33.84
2711;BME280;20721;47.402;8.550;2024-02-15T11:10:29;96317;;;18.97;34.20
2711;BME280;20721;47.402;8.550;2024-02-15T11:12:29;96314;;;19.09;34.05
2711;BME280;20721;47.402;8.550;2024-02-15T11:14:30;96315;;;19.11;33.84
2711;BME280;20721;47.402;8.550;2024-02-15T11:18:41;96308;;;18.97;34.25
2711;BME280;20721;47.402;8.550;2024-02-15T11:21:59;96312;;;18.97;34.10
2711;BME280;20721;47.402;8.550;2024-02-15T11:23:37;96308;;;18.66;34.61
2711;BME280;20721;47.402;8.550;2024-02-15T11:25:31;96313;;;18.56;34.59
2711;BME280;20721;47.402;8.550;2024-02-15T11:27:30;96312;;;18.53;34.98
2711;BME280;20721;47.402;8.550;2024-02-15T11:30:31;96310;;;18.50;35.16
2711;BME280;20721;47.402;8.550;2024-02-15T11:33:31;96304;;;18.56;34.33
2711;BME280;20721;47.402;8.550;2024-02-15T11:35:30;96301;;;18.64;34.41
2711;BME280;20721;47.402;8.550;2024-02-15T11:38:29;96296;;;18.70;34.56
2711;BME280;20721;47.402;8.550;2024-02-15T11:41:29;96298;;;18.81;34.90
2711;BME280;20721;47.402;8.550;2024-02-15T11:44:29;96292;;;18.54;34.60
2711;BME280;20721;47.402;8.550;2024-02-15T11:46:32;96292;;;18.59;34.78
2711;BME280;20721;47.402;8.550;2024-02-15T11:48:30;96291;;;18.62;34.52
2711;BME280;20721;47.402;8.550;2024-02-15T11:50:33;96292;;;18.61;34.71
2711;BME280;20721;47.402;8.550;2024-02-15T11:53:29;96282;;;18.68;33.99
2711;BME280;20721;47.402;8.550;2024-02-15T11:55:29;96277;;;18.57;33.90
2711;BME280;20721;47.402;8.550;2024-02-15T11:57:37;96276;;;18.64;33.41
2711;BME280;20721;47.402;8.550;2024-02-15T11:59:38;96269;;;18.70;33.75
2711;BME280;20721;47.402;8.550;2024-02-15T12:19:29;96241;;;17.88;34.42
2711;BME280;20721;47.402;8.550;2024-02-15T12:21:29;96242;;;17.78;34.34
2711;BME280;20721;47.402;8.550;2024-02-15T12:23:33;96235;;;17.83;34.59
2711;BME280;20721;47.402;8.550;2024-02-15T12:25:32;96229;;;18.01;34.62
2711;BME280;20721;47.402;8.550;2024-02-15T12:27:30;96218;;;18.05;34.65
2711;BME280;20721;47.402;8.550;2024-02-15T12:29:29;96212;;;18.12;34.49
2711;BME280;20721;47.402;8.550;2024-02-15T12:31:29;96212;;;17.95;34.07
2711;BME280;20721;47.402;8.550;2024-02-15T12:33:31;96220;;;17.85;34.52